Picayune, MS

18:29 CST le 31 janvier 2015 (GMT -0600)
Hide_A_Way Lake ~OWX | Change Station
CLOSE
Current Station
Stations météorologiques personnelles
Location: Carriere, MS
Altitude: 100 ft
Stations météo à proximité

Alt. 100 ft 30.58 °N, 89.65 °W | Updated 10 seconds ago

Partiellement nuageux
Partiellement nuageux
54.0 ° F
Paraît 54.0 ° F
N
0.0
Vent Variable Vent de ESE
Gusts 3.0 mph

Aujourd'hui
Haut(e) -- | Bas -- ° F
--% Risque de précip.
Hier
Haut(e) -- | Bas -- ° F
Precip. -- pouce
6:50 AM 5:33 PM
Lune gibbeuse croissante, 92% visible
Pression 30.20 pouce
Visibilité 10.0 Miles terrestres
Nuages Ciel dégagé
Point de rosée 48 ° F
Humidité 79%
Précipitations 0.00 pouce
Profondeur de la couche neigeuse Non disponible.
UV 0.0 sur 12
Pollen 8.00 sur 12
Qualité de l'air Non disponible.
Flu Activity Non disponible.
METAR KASD 312353Z AUTO 08003KT 10SM CLR 13/08 A3020 RMK AO2 SLP226 T01280083 10172 20128 55004

More Conditions Fewer Conditions

Pression 30.20 pouce
Visibilité 10.0 Miles terrestres
Nuages Ciel dégagé
Point de rosée 48 ° F
Humidité 79%
Précipitations 0.00 pouce
Profondeur de la couche neigeuse Non disponible.
UV 0.0 sur 12
Pollen 8.00 sur 12
Qualité de l'air Non disponible.
Flu Activity Non disponible.
METAR KASD 312353Z AUTO 08003KT 10SM CLR 13/08 A3020 RMK AO2 SLP226 T01280083 10172 20128 55004

More Conditions Fewer Conditions

10-Day Weather Forecast

Almanac

Astronomie

Jan. 31, 2015 Lever Coucher
Temps réel
Crépuscule civil
Crépuscule nautique
Crépuscule astronomique
Lune
Durée de lumière visible
Longueur du jour
Tomorrow will be .
, % of the Moon is Illuminated

Extrêmes aujourd'hui

State Highs State Lows

Community

WunderPhotos

Upload Photos

1,792,255 Photos téléchargées !

WunderBlogs® & News

Nearby

Qualité de l'air

  Qualité de l'air Indice de la qualité de l'air Polluant
Not available.

Épaisseur de neige

Station Depth Altitude

Activité sismique

Ville Distance Mag. Time & Date
Minimum magnitude displayed is 2.5.

Températures des eaux côtières

Lieu Température

Stations météo à proximité